Time;durP1;ratioP1;P1;durP2;ratioP2;P2;SDS_P1;SDS_P2;PMS_P1;PMS_P2;Temp;Humidity;BMP_temperature;BMP_pressure;BME280_temperature;BME280_humidity;BME280_pressure;Samples;Min_cycle;Max_cycle;Signal;HPM_P1;HPM_P2
2023/08/22 00:00:30;;;;;;;22.70;11.27;;;;;;;22.69;100.00;96256.09;1018106;29;20028;-76
2023/08/22 00:01:00;;;;;;;16.65;10.80;;;;;;;22.69;100.00;96255.31;1018540;29;20022;-73
2023/08/22 00:01:31;;;;;;;17.88;10.82;;;;;;;22.67;100.00;96253.00;1018937;29;20038;-75
2023/08/22 00:02:01;;;;;;;15.10;11.10;;;;;;;22.66;100.00;96250.63;1019046;28;20370;-73
2023/08/22 00:02:32;;;;;;;19.23;11.85;;;;;;;22.66;100.00;96253.31;1027019;28;20026;-75
2023/08/22 00:03:02;;;;;;;15.02;10.35;;;;;;;22.65;100.00;96252.53;1030844;28;20368;-76
2023/08/22 00:03:33;;;;;;;12.48;10.55;;;;;;;22.63;100.00;96249.38;1026819;28;20027;-73
2023/08/22 00:04:03;;;;;;;23.73;11.10;;;;;;;22.61;100.00;96248.16;1034908;28;20029;-73
2023/08/22 00:04:34;;;;;;;19.77;11.23;;;;;;;22.60;100.00;96247.34;1034917;28;20530;-75
2023/08/22 00:05:05;;;;;;;17.27;11.38;;;;;;;22.54;100.00;96248.69;1030950;28;20018;-74
2023/08/22 00:05:35;;;;;;;12.27;10.55;;;;;;;22.53;100.00;96249.78;1030584;28;20031;-74
2023/08/22 00:06:06;;;;;;;12.30;10.30;;;;;;;22.53;100.00;96247.09;1030875;28;20018;-76
2023/08/22 00:06:36;;;;;;;17.00;11.63;;;;;;;22.44;100.00;96230.34;1030732;28;20026;-73
2023/08/22 00:07:07;;;;;;;14.32;10.80;;;;;;;22.45;100.00;96238.03;1030508;28;20022;-74
2023/08/22 00:07:39;;;;;;;13.60;11.02;;;;;;;22.45;100.00;96245.28;1022648;28;20386;-73
2023/08/22 00:08:09;;;;;;;12.48;11.15;;;;;;;22.42;100.00;96243.25;1022710;29;20095;-74
2023/08/22 00:08:40;;;;;;;11.73;10.40;;;;;;;22.35;100.00;96239.22;1022516;29;20482;-75
2023/08/22 00:09:11;;;;;;;15.38;11.65;;;;;;;22.33;100.00;96238.78;1023445;28;20789;-74
2023/08/22 00:09:42;;;;;;;13.32;11.00;;;;;;;22.37;100.00;96246.94;1030667;28;20023;-74
2023/08/22 00:10:13;;;;;;;16.10;11.20;;;;;;;22.35;100.00;96247.25;1022876;28;20027;-73
2023/08/22 00:10:44;;;;;;;11.98;10.48;;;;;;;22.34;100.00;96251.03;1025868;28;20030;-76
2023/08/22 00:11:15;;;;;;;15.02;11.15;;;;;;;22.35;100.00;96241.88;1026689;28;20023;-75
2023/08/22 00:11:45;;;;;;;17.52;11.70;;;;;;;22.35;100.00;96241.09;1026914;28;20038;-73
2023/08/22 00:12:18;;;;;;;14.40;10.68;;;;;;;22.33;100.00;96244.13;1029507;28;20034;-76
2023/08/22 00:12:48;;;;;;;21.90;11.73;;;;;;;22.34;100.00;96243.00;1034760;28;20037;-75
2023/08/22 00:13:18;;;;;;;16.95;10.90;;;;;;;22.34;100.00;96244.91;1034712;28;20518;-75
2023/08/22 00:13:49;;;;;;;14.60;11.23;;;;;;;22.30;100.00;96243.97;1030846;28;20061;-75
2023/08/22 00:14:19;;;;;;;13.20;10.60;;;;;;;22.28;100.00;96246.19;1034772;28;20602;-73
2023/08/22 00:14:50;;;;;;;18.80;11.25;;;;;;;22.25;100.00;96244.94;1030871;28;20026;-76
2023/08/22 00:15:21;;;;;;;16.50;11.98;;;;;;;22.21;100.00;96238.69;1030611;28;20030;-75
2023/08/22 00:15:51;;;;;;;15.77;11.80;;;;;;;22.25;100.00;96250.28;1026774;28;20155;-76
2023/08/22 00:16:23;;;;;;;16.52;11.20;;;;;;;22.22;100.00;96247.50;1026630;28;20424;-75
2023/08/22 00:16:53;;;;;;;14.13;10.70;;;;;;;22.20;100.00;96250.50;1026582;28;20030;-75
2023/08/22 00:17:24;;;;;;;15.13;11.15;;;;;;;22.21;100.00;96249.38;1022660;28;20019;-75
2023/08/22 00:17:55;;;;;;;20.63;11.77;;;;;;;22.13;100.00;96245.63;1022997;28;20039;-74
2023/08/22 00:18:26;;;;;;;14.45;10.55;;;;;;;22.18;100.00;96252.69;1018886;29;20019;-75
2023/08/22 00:18:56;;;;;;;15.65;11.23;;;;;;;22.17;100.00;96251.16;1022837;28;20039;-74
2023/08/22 00:19:26;;;;;;;14.57;11.23;;;;;;;22.17;100.00;96256.50;1022756;28;20532;-73
2023/08/22 00:19:57;;;;;;;14.30;11.13;;;;;;;22.08;100.00;96245.81;1026741;28;20763;-74
2023/08/22 00:20:27;;;;;;;14.80;10.90;;;;;;;22.15;100.00;96257.88;1029945;28;20026;-75
2023/08/22 00:20:58;;;;;;;19.45;11.48;;;;;;;22.14;100.00;96257.09;1026598;28;20023;-72
2023/08/22 00:21:30;;;;;;;16.52;11.75;;;;;;;22.14;100.00;96257.09;1026611;28;20023;-75
2023/08/22 00:22:00;;;;;;;27.38;12.52;;;;;;;22.07;100.00;96251.50;1022801;28;20019;-73
2023/08/22 00:22:31;;;;;;;16.73;11.57;;;;;;;22.09;100.00;96246.59;1021080;28;20070;-74
2023/08/22 00:23:03;;;;;;;13.77;10.98;;;;;;;21.97;100.00;96236.63;1026229;28;20031;-75
2023/08/22 00:23:34;;;;;;;15.30;12.23;;;;;;;22.11;100.00;96249.75;1025849;28;20058;-71
2023/08/22 00:24:04;;;;;;;15.63;11.52;;;;;;;22.16;100.00;96265.59;1017378;29;20717;-76
2023/08/22 00:24:35;;;;;;;20.30;12.05;;;;;;;22.16;100.00;96260.25;1022377;29;20019;-72
2023/08/22 00:25:06;;;;;;;18.38;11.27;;;;;;;22.17;100.00;96261.84;1025893;28;20015;-74
2023/08/22 00:25:37;;;;;;;17.52;11.70;;;;;;;22.20;100.00;96261.19;1026221;28;20176;-74
2023/08/22 00:26:07;;;;;;;22.73;11.60;;;;;;;22.19;100.00;96264.97;1030735;28;20057;-75
2023/08/22 00:26:38;;;;;;;13.63;12.23;;;;;;;22.19;100.00;96259.59;1027155;28;20401;-75
2023/08/22 00:27:11;;;;;;;16.98;12.05;;;;;;;22.19;100.00;96262.28;1026964;28;20113;-75
2023/08/22 00:27:42;;;;;;;20.70;13.60;;;;;;;22.18;100.00;96268.75;1034182;28;20038;-75
2023/08/22 00:28:14;;;;;;;17.73;12.57;;;;;;;22.16;100.00;96257.59;1031052;28;20045;-76
2023/08/22 00:28:44;;;;;;;17.83;13.63;;;;;;;22.21;100.00;96270.78;1026530;28;20086;-74
2023/08/22 00:29:14;;;;;;;15.18;13.57;;;;;;;22.20;100.00;96268.41;1026564;28;20027;-74
2023/08/22 00:29:45;;;;;;;16.60;12.80;;;;;;;22.20;100.00;96257.72;1026577;28;20026;-73
2023/08/22 00:30:15;;;;;;;17.10;13.65;;;;;;;22.19;100.00;96259.59;1023016;28;20027;-75
2023/08/22 00:30:46;;;;;;;20.77;13.10;;;;;;;22.21;100.00;96265.44;1026869;28;20030;-74
2023/08/22 00:31:17;;;;;;;16.65;12.70;;;;;;;22.21;100.00;96265.44;1026615;28;20030;-74
2023/08/22 00:31:47;;;;;;;18.67;13.05;;;;;;;22.10;100.00;96242.84;1022470;29;20111;-75
2023/08/22 00:32:17;;;;;;;16.88;12.93;;;;;;;22.22;100.00;96258.97;1026525;28;20023;-74
2023/08/22 00:32:48;;;;;;;19.02;12.15;;;;;;;22.22;100.00;96264.31;1026487;28;20018;-73
2023/08/22 00:33:18;;;;;;;14.65;12.48;;;;;;;22.20;100.00;96261.19;1026474;28;20639;-74
2023/08/22 00:33:49;;;;;;;16.88;12.93;;;;;;;22.19;100.00;96267.63;1026731;28;20047;-76
2023/08/22 00:34:19;;;;;;;14.80;12.43;;;;;;;22.20;100.00;96265.72;1026485;28;20105;-73
2023/08/22 00:34:50;;;;;;;14.05;12.35;;;;;;;22.18;100.00;96268.75;1029065;28;20110;-73
2023/08/22 00:35:24;;;;;;;14.18;11.75;;;;;;;22.13;100.00;96252.84;1022716;28;20086;-74
2023/08/22 00:35:55;;;;;;;15.35;12.98;;;;;;;22.18;100.00;96268.75;1026585;28;20038;-75
2023/08/22 00:36:25;;;;;;;16.40;13.20;;;;;;;22.16;100.00;96257.59;1026847;28;20374;-74
2023/08/22 00:36:56;;;;;;;15.52;12.57;;;;;;;22.11;100.00;96257.75;1030503;28;20069;-73
2023/08/22 00:37:26;;;;;;;18.65;12.02;;;;;;;22.13;100.00;96260.88;1022879;28;20478;-76
2023/08/22 00:37:57;;;;;;;15.60;12.70;;;;;;;22.10;100.00;96259.66;1022499;28;20031;-75
2023/08/22 00:38:28;;;;;;;15.90;13.63;;;;;;;22.12;100.00;96262.75;1026580;28;20022;-75
2023/08/22 00:38:59;;;;;;;14.98;12.15;;;;;;;22.13;100.00;96266.22;1027172;28;20050;-76
2023/08/22 00:39:29;;;;;;;16.23;12.25;;;;;;;22.12;100.00;96264.66;1030574;28;20401;-76
2023/08/22 00:40:00;;;;;;;13.77;11.85;;;;;;;22.12;100.00;96270.00;1026621;28;20026;-72
2023/08/22 00:40:30;;;;;;;18.27;13.00;;;;;;;22.09;100.00;96260.72;1025965;28;20465;-75
2023/08/22 00:41:00;;;;;;;20.17;13.00;;;;;;;22.08;100.00;96263.75;1026495;28;20096;-75
2023/08/22 00:41:32;;;;;;;14.98;12.57;;;;;;;22.06;100.00;96268.63;1026541;28;20034;-75
2023/08/22 00:42:03;;;;;;;13.55;12.15;;;;;;;22.07;100.00;96267.53;1030800;28;20050;-76
2023/08/22 00:42:33;;;;;;;14.65;12.35;;;;;;;22.06;100.00;96260.59;1026515;28;20026;-75
2023/08/22 00:43:03;;;;;;;17.58;13.27;;;;;;;22.05;100.00;96267.84;1022682;28;20019;-75
2023/08/22 00:43:34;;;;;;;16.25;12.90;;;;;;;21.99;100.00;96253.09;1026606;28;20038;-73
2023/08/22 00:44:04;;;;;;;15.05;12.48;;;;;;;21.98;100.00;96258.78;1026581;28;20620;-75
2023/08/22 00:44:35;;;;;;;16.95;12.45;;;;;;;21.99;100.00;96263.00;1026648;28;20061;-75
2023/08/22 00:45:06;;;;;;;18.58;12.73;;;;;;;21.95;100.00;96260.19;1022292;28;20042;-74
2023/08/22 00:45:36;;;;;;;22.40;13.32;;;;;;;21.93;100.00;96253.59;1022581;28;20394;-73
2023/08/22 00:46:07;;;;;;;15.23;12.68;;;;;;;21.96;100.00;96258.31;1026702;28;20037;-74
2023/08/22 00:46:37;;;;;;;20.58;13.18;;;;;;;21.94;100.00;96263.19;1024057;28;20746;-74
2023/08/22 00:47:08;;;;;;;15.70;12.38;;;;;;;21.91;100.00;96255.81;1026495;28;20030;-75
2023/08/22 00:47:38;;;;;;;17.13;12.85;;;;;;;21.91;100.00;96261.16;1022529;29;20027;-75
2023/08/22 00:48:09;;;;;;;18.88;12.00;;;;;;;21.87;100.00;96259.13;1022440;29;20446;-74
2023/08/22 00:48:39;;;;;;;16.08;12.93;;;;;;;21.85;100.00;96256.00;1022591;29;20031;-75
2023/08/22 00:49:09;;;;;;;16.80;12.55;;;;;;;21.84;100.00;96267.78;1022685;28;20027;-73
2023/08/22 00:49:40;;;;;;;19.08;12.82;;;;;;;21.83;100.00;96263.56;1026873;28;20396;-74
2023/08/22 00:50:10;;;;;;;15.80;12.50;;;;;;;21.83;100.00;96257.41;1034695;28;20018;-74
2023/08/22 00:50:41;;;;;;;14.82;12.80;;;;;;;21.77;100.00;96259.50;1037972;28;20044;-74
2023/08/22 00:51:12;;;;;;;17.85;13.10;;;;;;;21.74;100.00;96254.81;1030508;28;20667;-74
2023/08/22 00:51:43;;;;;;;16.23;13.13;;;;;;;21.76;100.00;96263.25;1026445;28;20109;-73
2023/08/22 00:52:13;;;;;;;14.07;12.52;;;;;;;21.72;100.00;96262.34;1022646;29;20086;-77
2023/08/22 00:52:43;;;;;;;18.25;12.93;;;;;;;21.72;100.00;96265.00;1026523;28;20493;-76
2023/08/22 00:53:14;;;;;;;14.38;12.88;;;;;;;21.74;100.00;96265.50;1030411;28;20026;-73
2023/08/22 00:53:44;;;;;;;14.27;12.45;;;;;;;21.65;100.00;96257.50;1028274;28;20029;-75
2023/08/22 00:54:15;;;;;;;16.80;12.75;;;;;;;21.70;100.00;96269.91;1018670;29;20030;-75
2023/08/22 00:54:46;;;;;;;16.50;13.30;;;;;;;21.68;100.00;96266.75;1026630;28;20416;-73
2023/08/22 00:55:17;;;;;;;15.48;13.27;;;;;;;21.67;100.00;96270.56;1034447;28;20018;-72
2023/08/22 00:55:47;;;;;;;13.85;12.43;;;;;;;21.64;100.00;96265.84;1027968;28;20061;-73
2023/08/22 00:56:18;;;;;;;14.48;13.02;;;;;;;21.64;100.00;96269.28;1022688;29;20034;-75
2023/08/22 00:56:49;;;;;;;18.50;12.88;;;;;;;21.62;100.00;96268.81;1031989;28;20014;-74
2023/08/22 00:57:19;;;;;;;15.15;13.30;;;;;;;21.59;100.00;96266.00;1030609;28;20029;-76
2023/08/22 00:57:50;;;;;;;14.50;12.13;;;;;;;21.62;100.00;96270.72;1030656;28;20034;-76
2023/08/22 00:58:20;;;;;;;19.48;12.18;;;;;;;21.61;100.00;96266.47;1030466;28;20026;-75
2023/08/22 00:58:51;;;;;;;15.18;12.95;;;;;;;21.59;100.00;96274.81;1030771;28;20019;-75
2023/08/22 00:59:22;;;;;;;20.02;13.23;;;;;;;21.55;100.00;96270.44;1030418;28;20019;-77
2023/08/22 00:59:52;;;;;;;18.75;13.88;;;;;;;21.51;100.00;96272.19;1030548;28;20057;-75
2023/08/22 01:00:23;;;;;;;21.13;13.52;;;;;;;21.54;100.00;96277.66;1033900;28;20383;-76
2023/08/22 01:00:53;;;;;;;16.90;13.18;;;;;;;21.51;100.00;96272.97;1034682;28;20067;-75
2023/08/22 01:01:24;;;;;;;20.73;13.45;;;;;;;21.50;100.00;96278.63;1026533;28;20027;-73
2023/08/22 01:01:55;;;;;;;19.25;13.93;;;;;;;21.48;100.00;96275.47;1030513;28;20022;-73
2023/08/22 01:02:25;;;;;;;15.85;13.98;;;;;;;21.45;100.00;96268.88;1034726;28;20032;-75
2023/08/22 01:02:57;;;;;;;15.48;13.88;;;;;;;21.45;100.00;96281.47;1034880;28;20018;-76
2023/08/22 01:03:27;;;;;;;17.35;14.48;;;;;;;21.41;100.00;96279.41;1034451;28;20033;-78
2023/08/22 01:03:57;;;;;;;16.42;13.75;;;;;;;21.39;100.00;96276.31;1034530;28;20026;-76
2023/08/22 01:04:28;;;;;;;16.05;14.43;;;;;;;21.37;100.00;96278.50;1026784;28;20027;-74
2023/08/22 01:04:58;;;;;;;19.27;14.13;;;;;;;21.30;100.00;96261.38;1030898;28;20795;-76
2023/08/22 01:05:29;;;;;;;16.85;13.85;;;;;;;21.35;100.00;96280.69;1030451;28;20029;-75
2023/08/22 01:06:05;;;;;;;17.48;14.50;;;;;;;21.27;100.00;96268.13;1030665;28;20020;-73
2023/08/22 01:06:45;;;;;;;20.98;14.38;;;;;;;21.31;100.00;96281.63;1022590;28;20141;-76
2023/08/22 01:07:23;;;;;;;17.50;15.25;;;;;;;21.24;100.00;96276.78;1026449;28;20050;-74
2023/08/22 01:07:59;;;;;;;21.63;15.15;;;;;;;21.28;100.00;96287.59;1026514;28;20059;-74
2023/08/22 01:08:31;;;;;;;19.90;14.43;;;;;;;21.28;100.00;96279.59;1022554;29;20034;-75
2023/08/22 01:09:04;;;;;;;16.50;14.80;;;;;;;21.26;100.00;96281.78;1018564;29;20057;-75
2023/08/22 01:09:47;;;;;;;22.60;14.93;;;;;;;21.26;100.00;96281.78;1022538;29;20027;-75
2023/08/22 01:10:20;;;;;;;18.65;14.52;;;;;;;21.26;100.00;96287.94;1026468;28;20507;-76
2023/08/22 01:10:53;;;;;;;15.63;13.93;;;;;;;21.27;100.00;96281.47;1026371;28;20041;-74
2023/08/22 01:11:29;;;;;;;19.80;14.88;;;;;;;21.29;100.00;96292.59;1022458;29;20019;-73
2023/08/22 01:12:22;;;;;;;20.98;14.55;;;;;;;21.24;100.00;96274.09;1018532;29;20094;-75
2023/08/22 01:13:16;;;;;;;20.02;14.25;;;;;;;21.26;100.00;96282.59;1022607;29;20030;-75
2023/08/22 01:13:46;;;;;;;20.45;13.77;;;;;;;21.23;100.00;96277.88;1027150;28;20023;-74
2023/08/22 01:14:19;;;;;;;21.20;14.07;;;;;;;21.24;100.00;96278.66;1020253;29;20023;-75
2023/08/22 01:15:12;;;;;;;18.38;14.48;;;;;;;21.25;100.00;96285.56;1022079;29;20070;-75
2023/08/22 01:15:43;;;;;;;21.17;14.15;;;;;;;21.26;100.00;96281.78;1013984;29;20020;-76
2023/08/22 01:16:13;;;;;;;18.90;14.75;;;;;;;21.16;100.00;96269.59;1021787;29;20011;-75
2023/08/22 01:16:44;;;;;;;20.52;14.45;;;;;;;21.21;100.00;96279.28;1018559;29;20032;-75
2023/08/22 01:17:14;;;;;;;21.30;14.98;;;;;;;21.20;100.00;96281.19;1022353;28;20404;-75
2023/08/22 01:17:44;;;;;;;30.15;14.98;;;;;;;21.18;100.00;96273.47;1018411;29;20035;-75
2023/08/22 01:18:15;;;;;;;18.90;14.82;;;;;;;21.13;100.00;96268.31;1018545;29;20020;-75
2023/08/22 01:18:46;;;;;;;18.10;14.95;;;;;;;21.10;100.00;96268.16;1018452;29;20008;-76
2023/08/22 01:19:18;;;;;;;32.63;15.25;;;;;;;21.15;100.00;96273.34;1026361;28;20114;-73
2023/08/22 01:19:49;;;;;;;16.92;14.05;;;;;;;21.15;100.00;96276.00;1026691;28;20050;-75
2023/08/22 01:20:19;;;;;;;20.80;15.00;;;;;;;21.18;100.00;96270.03;1030343;28;20026;-71
2023/08/22 01:20:50;;;;;;;18.17;14.00;;;;;;;21.12;100.00;96263.28;1030709;28;20061;-73
2023/08/22 01:21:21;;;;;;;17.65;15.05;;;;;;;21.15;100.00;96271.44;1030655;28;20065;-74
2023/08/22 01:21:52;;;;;;;16.73;14.10;;;;;;;21.14;100.00;96275.22;1022556;29;20019;-75
2023/08/22 01:22:25;;;;;;;20.25;14.98;;;;;;;21.14;100.00;96277.88;1026244;28;20018;-76
2023/08/22 01:22:56;;;;;;;20.40;14.02;;;;;;;21.09;100.00;96261.25;1022966;28;20058;-75
2023/08/22 01:23:26;;;;;;;22.35;14.32;;;;;;;21.14;100.00;96269.88;1015428;29;20594;-75
2023/08/22 01:23:57;;;;;;;24.60;14.38;;;;;;;21.12;100.00;96265.97;1016963;29;20024;-73
2023/08/22 01:24:27;;;;;;;15.38;13.82;;;;;;;21.13;100.00;96270.22;1022664;28;20045;-73
2023/08/22 01:24:59;;;;;;;22.65;13.68;;;;;;;21.13;100.00;96267.53;1026945;28;20058;-75
2023/08/22 01:25:29;;;;;;;23.77;14.50;;;;;;;21.12;100.00;96271.28;1032517;28;20038;-75
2023/08/22 01:26:00;;;;;;;18.20;14.02;;;;;;;21.10;100.00;96268.94;1030471;28;20423;-73
2023/08/22 01:26:30;;;;;;;22.45;14.48;;;;;;;21.12;100.00;96265.97;1018504;29;20028;-76
2023/08/22 01:27:01;;;;;;;17.70;13.15;;;;;;;21.11;100.00;96267.06;1026511;28;20022;-72
2023/08/22 01:27:31;;;;;;;17.27;14.32;;;;;;;21.10;100.00;96263.63;1026385;28;20018;-73
2023/08/22 01:28:17;;;;;;;16.90;14.63;;;;;;;21.10;100.00;96268.16;1018851;29;20015;-72
2023/08/22 01:28:52;;;;;;;18.90;14.18;;;;;;;21.09;100.00;96263.91;1014404;29;20020;-73
2023/08/22 01:29:35;;;;;;;20.25;14.13;;;;;;;21.08;100.00;96260.47;1026376;28;20007;-75
2023/08/22 01:30:10;;;;;;;18.33;14.80;;;;;;;21.14;100.00;96261.09;1026558;28;20033;-75
2023/08/22 01:31:05;;;;;;;18.40;14.23;;;;;;;21.07;100.00;96252.78;1021569;29;20019;-75
2023/08/22 01:31:58;;;;;;;18.08;14.18;;;;;;;21.21;100.00;96265.94;1026647;28;20499;-75
2023/08/22 01:32:33;;;;;;;18.00;13.73;;;;;;;21.13;100.00;96256.88;1028513;28;20093;-73
2023/08/22 01:33:06;;;;;;;18.98;14.13;;;;;;;21.16;100.00;96261.56;1022427;28;20008;-74
2023/08/22 01:33:46;;;;;;;30.70;14.55;;;;;;;21.13;100.00;96248.88;1022428;28;20035;-76
2023/08/22 01:34:22;;;;;;;19.63;14.98;;;;;;;21.16;100.00;96254.34;1026551;28;20162;-76
2023/08/22 01:34:54;;;;;;;20.80;14.07;;;;;;;21.14;100.00;96263.75;1029106;28;20026;-76
2023/08/22 01:35:24;;;;;;;17.02;14.43;;;;;;;21.20;100.00;96267.84;1026515;28;20015;-75
2023/08/22 01:35:55;;;;;;;20.25;14.57;;;;;;;21.21;100.00;96264.06;1022533;29;20023;-77
2023/08/22 01:36:25;;;;;;;18.20;14.30;;;;;;;21.23;100.00;96261.88;1022356;29;20042;-73
2023/08/22 01:36:56;;;;;;;16.55;14.82;;;;;;;21.19;100.00;96258.25;1022425;29;20023;-74
2023/08/22 01:37:28;;;;;;;21.80;14.77;;;;;;;21.22;100.00;96252.28;1022582;29;20023;-75
2023/08/22 01:37:58;;;;;;;17.77;14.57;;;;;;;21.19;100.00;96250.25;1026275;28;20027;-75
2023/08/22 01:38:29;;;;;;;22.75;14.05;;;;;;;21.22;100.00;96259.50;1022527;29;20019;-75
2023/08/22 01:39:04;;;;;;;17.20;14.55;;;;;;;21.20;100.00;96251.81;1018364;29;20489;-74
2023/08/22 01:39:34;;;;;;;21.67;15.10;;;;;;;21.20;100.00;96262.50;1022435;29;20027;-75
2023/08/22 01:40:05;;;;;;;16.50;14.77;;;;;;;21.16;100.00;96253.56;1023016;28;20058;-73
2023/08/22 01:40:36;;;;;;;18.92;13.48;;;;;;;21.14;100.00;96253.88;1025804;28;20031;-73
2023/08/22 01:41:07;;;;;;;17.92;13.63;;;;;;;21.11;100.00;96259.06;1026255;28;20711;-76
2023/08/22 01:41:38;;;;;;;17.25;13.70;;;;;;;21.10;100.00;96252.94;1026264;28;20031;-75
2023/08/22 01:42:08;;;;;;;17.02;13.77;;;;;;;21.05;100.00;96252.31;1030394;28;20405;-74
2023/08/22 01:42:38;;;;;;;19.05;14.60;;;;;;;21.04;100.00;96248.09;1022539;28;20465;-76
2023/08/22 01:43:09;;;;;;;16.83;13.77;;;;;;;21.07;100.00;96258.13;1034211;28;20018;-73
2023/08/22 01:43:42;;;;;;;15.68;13.90;;;;;;;21.03;100.00;96255.31;1026482;28;20053;-75
2023/08/22 01:44:13;;;;;;;19.70;14.48;;;;;;;21.00;100.00;96252.50;1022461;29;20019;-74
2023/08/22 01:44:43;;;;;;;16.02;14.35;;;;;;;21.02;100.00;96256.41;1022436;29;20732;-74
2023/08/22 01:45:14;;;;;;;18.10;14.23;;;;;;;21.01;100.00;96254.84;1019426;28;20484;-75
2023/08/22 01:45:45;;;;;;;44.13;14.55;;;;;;;20.97;100.00;96250.47;1022612;28;20015;-78
2023/08/22 01:46:15;;;;;;;17.42;14.60;;;;;;;20.98;100.00;96260.81;1026744;28;20051;-72
2023/08/22 01:46:46;;;;;;;20.20;14.02;;;;;;;20.91;100.00;96245.28;1026255;28;20448;-76
2023/08/22 01:47:16;;;;;;;22.17;14.05;;;;;;;20.97;100.00;96264.56;1022439;28;20774;-73
2023/08/22 01:47:47;;;;;;;16.55;14.57;;;;;;;20.90;100.00;96249.03;1022537;29;20027;-75
2023/08/22 01:48:17;;;;;;;16.48;13.82;;;;;;;20.93;100.00;96264.44;1026304;28;20023;-75
2023/08/22 01:48:48;;;;;;;26.00;13.80;;;;;;;20.94;100.00;96255.31;1022573;28;20031;-74
2023/08/22 01:49:18;;;;;;;22.02;13.65;;;;;;;20.95;100.00;96264.09;1030539;28;20033;-77
2023/08/22 01:49:49;;;;;;;16.20;13.40;;;;;;;20.92;100.00;96257.53;1027275;28;20023;-75
2023/08/22 01:50:19;;;;;;;18.33;14.15;;;;;;;20.93;100.00;96259.09;1026657;28;20074;-74
2023/08/22 01:50:50;;;;;;;18.48;14.20;;;;;;;20.88;100.00;96253.13;1027237;28;20035;-76
2023/08/22 01:51:20;;;;;;;20.85;13.60;;;;;;;20.88;100.00;96256.56;1027235;28;20023;-72
2023/08/22 01:51:50;;;;;;;20.73;14.35;;;;;;;20.91;100.00;96258.59;1022982;28;20027;-72
2023/08/22 01:52:21;;;;;;;19.02;13.75;;;;;;;20.91;100.00;96253.28;1023288;29;20047;-75
2023/08/22 01:52:51;;;;;;;16.75;13.60;;;;;;;20.90;100.00;96254.38;1023388;28;20035;-75
2023/08/22 01:53:22;;;;;;;19.20;13.60;;;;;;;20.82;100.00;96247.16;1027197;28;20042;-73
2023/08/22 01:53:52;;;;;;;20.90;14.35;;;;;;;20.81;100.00;96245.59;1035520;28;20041;-72
2023/08/22 01:54:23;;;;;;;16.65;13.52;;;;;;;20.87;100.00;96257.69;1035384;28;20029;-73
2023/08/22 01:54:53;;;;;;;16.73;13.38;;;;;;;20.86;100.00;96258.78;1035080;28;20038;-75
2023/08/22 01:55:24;;;;;;;16.88;13.88;;;;;;;20.82;100.00;96252.50;1035215;28;20030;-74
2023/08/22 01:56:00;;;;;;;18.90;14.07;;;;;;;20.84;100.00;96257.53;1035587;28;20381;-76
2023/08/22 01:56:30;;;;;;;16.17;14.35;;;;;;;20.81;100.00;96250.94;1038820;28;20399;-75
2023/08/22 01:57:01;;;;;;;19.38;14.05;;;;;;;20.86;100.00;96263.34;1026492;28;20019;-75
2023/08/22 01:57:31;;;;;;;22.63;14.43;;;;;;;20.83;100.00;96258.63;1025729;29;20023;-76
2023/08/22 01:58:04;;;;;;;18.10;13.60;;;;;;;20.79;100.00;96253.16;1018838;29;20032;-76
2023/08/22 01:58:34;;;;;;;24.08;14.38;;;;;;;20.70;100.00;96249.69;1023448;28;20623;-74
2023/08/22 01:59:05;;;;;;;19.77;14.38;;;;;;;20.72;100.00;96258.16;1030984;28;20015;-75
2023/08/22 01:59:35;;;;;;;19.15;14.60;;;;;;;20.71;100.00;96259.25;1031474;28;20083;-76
2023/08/22 02:00:07;;;;;;;18.63;14.32;;;;;;;20.69;100.00;96269.44;1030262;28;20054;-76
2023/08/22 02:00:38;;;;;;;20.77;15.40;;;;;;;20.66;100.00;96254.09;1030016;28;20402;-76
2023/08/22 02:01:12;;;;;;;20.15;15.02;;;;;;;20.70;100.00;96263.81;1026885;28;20024;-75
2023/08/22 02:01:42;;;;;;;20.13;14.85;;;;;;;20.71;100.00;96256.59;1026658;28;20027;-74
2023/08/22 02:02:13;;;;;;;19.38;14.55;;;;;;;20.69;100.00;96264.09;1026190;28;20364;-75
2023/08/22 02:02:43;;;;;;;21.33;14.65;;;;;;;20.68;100.00;96263.34;1024691;28;20814;-75
2023/08/22 02:03:14;;;;;;;17.52;13.93;;;;;;;20.67;100.00;96263.66;1027357;28;20035;-74
2023/08/22 02:03:46;;;;;;;18.55;13.70;;;;;;;20.66;100.00;96262.09;1027091;28;20027;-75
2023/08/22 02:04:16;;;;;;;18.10;14.35;;;;;;;20.66;100.00;96264.75;1031441;28;20054;-75
2023/08/22 02:04:46;;;;;;;17.80;15.18;;;;;;;20.62;100.00;96258.47;1031256;28;20022;-75
2023/08/22 02:05:17;;;;;;;20.15;14.48;;;;;;;20.58;100.00;96260.19;1031379;28;20084;-74
2023/08/22 02:05:47;;;;;;;20.85;13.90;;;;;;;20.66;100.00;96264.75;1035283;28;20491;-73
2023/08/22 02:06:18;;;;;;;22.48;13.77;;;;;;;20.64;100.00;96264.28;1035329;28;20546;-73
2023/08/22 02:06:48;;;;;;;20.13;14.68;;;;;;;20.63;100.00;96260.06;1031096;28;20023;-75
2023/08/22 02:07:19;;;;;;;18.88;13.63;;;;;;;20.63;100.00;96262.72;1031191;28;20029;-74
2023/08/22 02:07:49;;;;;;;20.38;13.23;;;;;;;20.63;100.00;96265.38;1027291;28;20034;-73
2023/08/22 02:08:20;;;;;;;19.10;14.27;;;;;;;20.59;100.00;96259.09;1027179;28;20023;-76
2023/08/22 02:08:50;;;;;;;46.97;15.27;;;;;;;20.47;100.00;96252.47;1026820;28;20027;-75
2023/08/22 02:09:20;;;;;;;21.48;14.73;;;;;;;20.57;100.00;96261.31;1023118;29;20050;-75
2023/08/22 02:09:51;;;;;;;20.15;14.32;;;;;;;20.59;100.00;96265.22;1023158;29;20469;-75
2023/08/22 02:10:21;;;;;;;16.85;14.90;;;;;;;20.57;100.00;96266.63;1030507;28;20026;-72
2023/08/22 02:10:52;;;;;;;17.73;14.40;;;;;;;20.47;100.00;96251.69;1031055;28;20030;-75
2023/08/22 02:11:22;;;;;;;23.50;15.65;;;;;;;20.53;100.00;96263.03;1029709;28;20047;-75
2023/08/22 02:11:53;;;;;;;19.73;14.30;;;;;;;20.49;100.00;96263.63;1030582;28;20031;-75
2023/08/22 02:12:23;;;;;;;15.48;13.82;;;;;;;20.49;100.00;96263.63;1034020;28;20015;-75
2023/08/22 02:12:54;;;;;;;28.10;14.18;;;;;;;20.48;100.00;96264.72;1034223;28;20030;-74
2023/08/22 02:13:24;;;;;;;20.13;15.57;;;;;;;20.45;100.00;96257.34;1038563;28;20038;-76
2023/08/22 02:13:55;;;;;;;18.55;14.95;;;;;;;20.45;100.00;96265.31;1036981;28;20032;-75
2023/08/22 02:14:25;;;;;;;31.23;15.43;;;;;;;20.44;100.00;96269.09;1034406;28;20041;-75
2023/08/22 02:14:56;;;;;;;37.70;14.77;;;;;;;20.43;100.00;96261.44;1033996;28;20041;-77
2023/08/22 02:15:26;;;;;;;23.60;15.60;;;;;;;20.42;100.00;96265.16;1034281;28;20037;-75
2023/08/22 02:15:57;;;;;;;22.83;14.40;;;;;;;20.43;100.00;96267.53;1037412;28;20721;-75
2023/08/22 02:16:27;;;;;;;35.80;15.35;;;;;;;20.38;100.00;96257.03;1035941;28;20177;-73
2023/08/22 02:16:58;;;;;;;44.83;15.70;;;;;;;20.41;100.00;96263.63;1035323;28;20597;-76
2023/08/22 02:17:28;;;;;;;29.88;14.75;;;;;;;20.40;100.00;96262.84;1035105;28;20104;-74
2023/08/22 02:17:58;;;;;;;30.38;14.65;;;;;;;20.41;100.00;96258.28;1035243;28;20606;-75
2023/08/22 02:18:29;;;;;;;17.50;14.43;;;;;;;20.39;100.00;96263.16;1035118;28;20550;-75
2023/08/22 02:18:59;;;;;;;27.50;14.38;;;;;;;20.39;100.00;96263.94;1034972;28;20022;-74
2023/08/22 02:19:30;;;;;;;31.50;15.48;;;;;;;20.33;100.00;96262.50;1031060;28;20034;-75
2023/08/22 02:20:00;;;;;;;18.48;14.70;;;;;;;20.31;100.00;96255.91;1035267;28;20691;-73
2023/08/22 02:20:31;;;;;;;18.08;13.27;;;;;;;20.36;100.00;96264.56;1026215;28;20038;-76
2023/08/22 02:21:02;;;;;;;19.02;14.25;;;;;;;20.35;100.00;96262.97;1027090;28;20419;-73
2023/08/22 02:21:33;;;;;;;20.48;14.25;;;;;;;20.28;100.00;96248.53;1027346;28;20032;-73
2023/08/22 02:22:03;;;;;;;18.15;13.70;;;;;;;20.31;100.00;96259.38;1027498;28;20031;-73
2023/08/22 02:22:40;;;;;;;22.83;14.20;;;;;;;20.32;100.00;96266.28;1035484;28;20790;-74
2023/08/22 02:23:10;;;;;;;19.65;15.15;;;;;;;20.32;100.00;96271.63;1029911;28;20073;-76
2023/08/22 02:23:41;;;;;;;18.48;15.00;;;;;;;20.28;100.00;96262.66;1032619;28;20042;-72